Kake Airport
PAFE : rendu visible

Aérodrome :











RETROUVEZ-NOUS SUR...

 
LOGIN :

S'inscrire | Disclaimer

   EN    FR    IT 

 









Légende :    VFR   VFR Marginal   IFR   IFR Intensif   IFR Très Intensif
Visi : 
Plafond : 
>= 8 km
>= 3000ft
5 à 8 km
1000 à 3000 ft
1500m à 5 km
500 à 1000 ft
800 à 1500m
200 à 500 ft
< 800m
< 200 ft
Symboles :   Orages  Brouillard  Fortes neiges  Fortes précipitations  Vent > 20 kt






- Altitude de l'aérodrome : 172 ft
- Code IATA : AFE


PAFE - Kake

DERNIER METAR :
  • 100517Z AUTO 14010KT 10SM -RA FEW009 BKN055 OVC065 12/11 A2995 RMK AO2 P0000 $

METARs EXPIRÉS :
  • 100456Z AUTO 14010KT 10SM -RA FEW012 BKN026 OVC055 12/11 A2994 RMK AO2 SLP149 P0001 T01220111 $
  • 100428Z AUTO 14013KT 10SM -RA FEW006 BKN016 OVC023 12/11 A2992 RMK AO2 P0000 $
  • 100356Z AUTO 13012G18KT 10SM -RA OVC008 12/11 A2992 RMK AO2 RAB06 CIG 005V011 SLP143 P0002 T01220111 $
  • 100333Z AUTO 13012KT 10SM -RA BKN013 OVC019 12/11 A2991 RMK AO2 RAB06 P0000 $

TAF N/A
FIR PAZA / Amérique du Nord



MET'MAP, la Météo Aéronautique d'un coup d'oeil ! - Copyright ORBIFLY Décembre 2007 - Disclaimer

ORBIFLY MET'MAP TEAM :

Programmation & Développement : Alexandra Zaïnal
Sur une idée originale de : Baudouin d'Aumeries
Assistance à la programmation : Marc-Olivier Méhu
Soutien technique & logistique : Manuel Goepfert

Contact : metmap@orbifly.com




SOURCES & CREDITS :

   NOAA       Earth
Advisory